Rosedale, VA (24280)

2:01 PM EDT on May 27, 2017 (GMT -0400)
Tazewell County | | Change Station

Elev 2651 ft 37.06 °N, 81.80 °W | Updated 6 minutes ago

Overcast
Overcast
73 °F
Feels Like 73 °F
N
6
Wind Variable Wind from SW

Today
High -- | Low -- °F
--% Chance of Precip.
Yesterday
High -- | Low -- °F
Precip. -- in
Pressure 30.03 in
Visibility 10.0 miles
Clouds Overcast 2100 ft
Dew Point 65 °F
Humidity 76%
Rainfall 0.00 in
Snow Depth Not available.
6:11 AM 8:38 PM
Waxing Crescent, 6% visible
METAR KJFZ 271755Z AUTO 22005KT 10SM OVC021 23/18 A3003 RMK AO2 T02260181 10226 20185
Pressure 30.03 in
Visibility 10.0 miles
Clouds Overcast 2100 ft
Dew Point 65 °F
Humidity 76%
Rainfall 0.00 in
Snow Depth Not available.
6:11 AM 8:38 PM
Waxing Crescent, 6% visible
METAR KJFZ 271755Z AUTO 22005KT 10SM OVC021 23/18 A3003 RMK AO2 T02260181 10226 20185

Get Severe Weather Alerts

Thanks for signing up!

Be on the lookout for a verification email in your inbox.

You'll start receiving the daily forecast at 6 AM.

×

10-Day Weather Forecast

Almanac

Astronomy

May. 27, 2017 Rise Set
Actual Time
Civil Twilight
Nautical Twilight
Astronomical Twilight
Moon
Length of Visible Light
Length of Day
Tomorrow will be .
, % of the Moon is Illuminated

Today's Extremes

State Highs State Lows

Community

WunderPhotos

Category 6

Welcome to Category 6. This is the collective home for Weather Underground's featured writeups by Dr. Jeff Masters (right), Bob Henson (left), Chris Burt, and other regular contributors.

Nearby

Air Quality

  Air Quality AQ Index Pollutant
Not available.

Snow Depth

Station Depth Elevation

Earthquake Activity

City Distance Mag. Time & Date
Minimum magnitude displayed is 2.5.

Coastal Water Temperatures

Place Temperature

Stations

Nearby Weather Stations

Station Location Temp. Windchill Dew Point Humidity Wind Precip. Elev Updated Type
                   

Watches & Warnings

There are currently no watches in effect.